Time;durP1;ratioP1;P1;durP2;ratioP2;P2;SDS_P1;SDS_P2;PMS_P1;PMS_P2;Temp;Humidity;BMP_temperature;BMP_pressure;BME280_temperature;BME280_humidity;BME280_pressure;Samples;Min_cycle;Max_cycle;Signal;HPM_P1;HPM_P2
2022/09/01 00:02:07;;;;;;;3.55;1.75;;;15.10;99.90;;;;;;5046132;28;20331;-61
2022/09/01 00:42:21;;;;;;;4.70;2.00;;;14.70;99.90;;;;;;5076808;28;20032;-61
2022/09/01 00:44:47;;;;;;;3.90;2.10;;;14.70;99.90;;;;;;5056375;28;20045;-61
2022/09/01 00:47:13;;;;;;;3.08;1.90;;;14.70;99.90;;;;;;5060467;28;20198;-61
2022/09/01 00:49:43;;;;;;;4.20;2.25;;;14.70;99.90;;;;;;5058874;28;20051;-61
2022/09/01 00:52:14;;;;;;;4.03;2.10;;;14.60;99.90;;;;;;5076843;28;20044;-60
2022/09/01 00:54:47;;;;;;;3.53;1.95;;;14.50;99.90;;;;;;5062116;28;20044;-60
2022/09/01 00:57:14;;;;;;;4.57;2.00;;;14.60;99.90;;;;;;5059008;28;20449;-63
2022/09/01 01:03:24;;;;;;;5.25;2.25;;;14.60;99.90;;;;;;5077341;28;20461;-60
2022/09/01 01:38:26;;;;;;;2.53;1.90;;;14.20;99.90;;;;;;5079060;28;20132;-61
2022/09/01 01:40:53;;;;;;;5.00;2.22;;;14.10;99.90;;;;;;5075723;28;20444;-62
2022/09/01 01:43:21;;;;;;;3.15;2.35;;;14.10;99.90;;;;;;5076270;28;20072;-61
2022/09/01 01:45:52;;;;;;;4.45;2.35;;;14.00;99.90;;;;;;5075487;28;20043;-62
2022/09/01 01:48:23;;;;;;;5.90;2.20;;;14.10;99.90;;;;;;5075364;28;20123;-62
2022/09/01 01:50:51;;;;;;;3.08;2.30;;;14.10;99.90;;;;;;5075227;28;20485;-61
2022/09/01 02:31:02;;;;;;;4.85;2.40;;;13.70;99.90;;;;;;5073069;28;20373;-61
2022/09/01 02:33:31;;;;;;;3.30;2.22;;;13.70;99.90;;;;;;5056969;28;20373;-61
2022/09/01 02:36:00;;;;;;;8.00;2.60;;;13.70;99.90;;;;;;5057187;28;20354;-62
2022/09/01 02:38:28;;;;;;;4.88;2.40;;;13.70;99.90;;;;;;5056769;28;20051;-61
2022/09/01 02:41:00;;;;;;;4.25;2.80;;;13.60;99.90;;;;;;5074405;28;20036;-61
2022/09/01 02:43:27;;;;;;;4.43;2.35;;;13.60;99.90;;;;;;5074583;28;20041;-61
2022/09/01 02:45:58;;;;;;;3.42;2.53;;;13.60;99.90;;;;;;5075631;28;20048;-62
2022/09/01 02:48:44;;;;;;;7.43;2.95;;;13.60;99.90;;;;;;5055318;28;20052;-62
2022/09/01 02:51:14;;;;;;;4.45;2.50;;;13.60;99.90;;;;;;5073113;28;20351;-61
2022/09/01 02:53:41;;;;;;;4.75;3.03;;;13.50;99.90;;;;;;5073687;28;20528;-63
2022/09/01 02:56:10;;;;;;;5.07;2.50;;;13.50;99.90;;;;;;5039904;28;20111;-62
2022/09/01 02:58:44;;;;;;;4.68;2.60;;;13.50;99.90;;;;;;5073802;28;20101;-61
2022/09/01 03:27:11;;;;;;;4.13;2.60;;;13.20;99.90;;;;;;5073778;28;20039;-61
2022/09/01 03:29:37;;;;;;;5.20;3.10;;;13.20;99.90;;;;;;5073731;28;20086;-61
2022/09/01 03:32:03;;;;;;;5.68;3.30;;;13.20;99.90;;;;;;5073909;28;20072;-61
2022/09/01 03:34:50;;;;;;;3.42;2.75;;;13.10;99.90;;;;;;5073812;28;20051;-61
2022/09/01 03:37:16;;;;;;;5.10;3.03;;;13.10;99.90;;;;;;5056094;28;20049;-61
2022/09/01 03:39:42;;;;;;;5.47;3.20;;;13.10;99.90;;;;;;5056076;28;20116;-61
2022/09/01 03:42:10;;;;;;;4.68;2.80;;;13.10;99.90;;;;;;5074567;28;20112;-61
2022/09/01 03:45:29;;;;;;;4.45;2.88;;;13.10;99.90;;;;;;5056764;28;20470;-60
2022/09/01 03:48:07;;;;;;;4.97;2.58;;;13.00;99.90;;;;;;5073388;28;20044;-60
2022/09/01 04:21:05;;;;;;;5.78;3.22;;;12.70;99.90;;;;;;5062764;28;20413;-61
2022/09/01 04:23:39;;;;;;;6.00;3.50;;;12.60;99.90;;;;;;5073624;28;20052;-60
2022/09/01 04:26:19;;;;;;;7.10;3.10;;;12.60;99.90;;;;;;5109584;28;20036;-60
2022/09/01 04:28:57;;;;;;;4.88;3.00;;;12.60;99.90;;;;;;5075499;28;20036;-60
2022/09/01 04:31:29;;;;;;;4.60;3.10;;;12.60;99.90;;;;;;5077040;28;20046;-61
2022/09/01 04:33:57;;;;;;;4.68;3.03;;;12.60;99.90;;;;;;5075507;28;20119;-60
2022/09/01 04:36:30;;;;;;;5.15;2.97;;;12.60;99.90;;;;;;5071214;28;20044;-60
2022/09/01 05:14:20;;;;;;;5.22;2.75;;;12.30;99.90;;;;;;5075084;28;20067;-61
2022/09/01 05:16:57;;;;;;;5.00;2.55;;;12.40;99.90;;;;;;5037096;28;20111;-61
2022/09/01 05:19:27;;;;;;;5.53;3.03;;;12.40;99.90;;;;;;5028906;28;20481;-62
2022/09/01 05:21:56;;;;;;;3.47;2.80;;;12.40;99.90;;;;;;5050577;28;20087;-62
2022/09/01 05:24:29;;;;;;;4.55;2.67;;;12.40;99.90;;;;;;5047123;28;20047;-61
2022/09/01 05:26:55;;;;;;;4.80;2.70;;;12.40;99.90;;;;;;5037778;28;20072;-61
2022/09/01 05:29:20;;;;;;;5.15;3.05;;;12.50;99.90;;;;;;5048889;28;20553;-60
2022/09/01 05:31:47;;;;;;;4.50;2.80;;;12.50;99.90;;;;;;5035712;28;20049;-62
2022/09/01 06:02:42;;;;;;;2.60;2.10;;;16.80;99.90;;;;;;5080848;22;20051;-64
2022/09/01 06:05:08;;;;;;;5.75;2.63;;;17.30;99.90;;;;;;5005598;28;20489;-64
2022/09/01 06:07:36;;;;;;;4.07;2.22;;;17.50;99.90;;;;;;5027336;28;20041;-63
2022/09/01 06:10:03;;;;;;;3.35;2.13;;;17.60;99.90;;;;;;4996573;28;20121;-64
2022/09/01 06:12:29;;;;;;;3.90;2.15;;;17.90;99.90;;;;;;5026989;28;20034;-64
2022/09/01 06:14:55;;;;;;;3.65;1.95;;;18.10;99.90;;;;;;5021439;28;20052;-64
2022/09/01 06:17:24;;;;;;;2.67;1.90;;;18.40;99.90;;;;;;5021831;28;20033;-64
2022/09/01 06:19:57;;;;;;;3.95;2.55;;;18.60;99.90;;;;;;5025286;28;20038;-63
2022/09/01 06:22:27;;;;;;;3.83;2.10;;;18.50;99.90;;;;;;5023176;28;20116;-64
2022/09/01 06:24:53;;;;;;;3.30;2.00;;;18.80;99.90;;;;;;5024744;28;20156;-63
2022/09/01 06:27:20;;;;;;;4.93;2.25;;;19.00;99.90;;;;;;4992200;28;20104;-63
2022/09/01 06:29:52;;;;;;;3.05;2.17;;;19.10;99.90;;;;;;5013225;28;20042;-63
2022/09/01 06:32:18;;;;;;;3.53;2.00;;;19.30;99.90;;;;;;5011710;28;20038;-63
2022/09/01 06:34:44;;;;;;;3.63;1.80;;;19.30;99.90;;;;;;5013526;28;20060;-62
2022/09/01 06:37:11;;;;;;;4.78;1.98;;;19.10;99.90;;;;;;5013523;28;20054;-62
2022/09/01 06:39:37;;;;;;;3.38;1.88;;;19.20;99.90;;;;;;5015381;28;20041;-63
2022/09/01 06:42:03;;;;;;;3.20;2.08;;;19.40;99.90;;;;;;5014193;28;20049;-63
2022/09/01 06:44:30;;;;;;;3.95;2.13;;;19.60;99.90;;;;;;5022782;28;20033;-63
2022/09/01 06:46:58;;;;;;;5.50;2.10;;;19.70;99.90;;;;;;5020373;28;20474;-63
2022/09/01 06:49:31;;;;;;;3.15;1.90;;;19.90;99.90;;;;;;4982918;28;20037;-63
2022/09/01 06:51:58;;;;;;;4.85;1.95;;;20.20;99.90;;;;;;5021312;28;20038;-62
2022/09/01 06:54:24;;;;;;;5.07;1.83;;;20.40;99.90;;;;;;5020779;28;20092;-63
2022/09/01 06:56:51;;;;;;;3.70;2.08;;;20.40;99.90;;;;;;5002304;28;20034;-62
2022/09/01 06:59:17;;;;;;;2.35;1.90;;;20.30;99.90;;;;;;5023670;28;20041;-62
2022/09/01 07:01:42;;;;;;;2.67;1.80;;;20.20;99.90;;;;;;5025148;28;20055;-63
2022/09/01 07:04:09;;;;;;;3.92;1.90;;;20.30;99.90;;;;;;5028424;28;20493;-63
2022/09/01 07:06:35;;;;;;;3.58;2.33;;;20.50;99.90;;;;;;5024238;28;20038;-63
2022/09/01 07:09:02;;;;;;;3.75;2.05;;;20.60;99.90;;;;;;5027614;28;20051;-63
2022/09/01 07:11:32;;;;;;;3.63;2.22;;;20.40;99.90;;;;;;5006367;28;20045;-64
2022/09/01 07:14:00;;;;;;;5.05;1.90;;;20.20;99.90;;;;;;5028371;28;20045;-65
2022/09/01 07:16:28;;;;;;;4.47;2.10;;;19.90;99.90;;;;;;5024644;28;20021;-63
2022/09/01 07:18:57;;;;;;;3.85;2.00;;;19.70;99.90;;;;;;5026875;28;20044;-63
2022/09/01 07:21:24;;;;;;;4.18;1.90;;;19.60;99.90;;;;;;5026254;28;20037;-64
2022/09/01 07:23:50;;;;;;;4.40;2.05;;;19.50;99.90;;;;;;5025713;28;20504;-63
2022/09/01 07:26:18;;;;;;;3.28;2.10;;;19.40;99.90;;;;;;5001539;28;20050;-63
2022/09/01 07:28:49;;;;;;;3.45;2.00;;;19.30;99.90;;;;;;5014949;28;20045;-64
2022/09/01 07:31:42;;;;;;;6.72;2.20;;;19.30;99.90;;;;;;5023199;28;20046;-62
2022/09/01 07:34:12;;;;;;;4.50;2.10;;;19.30;99.90;;;;;;5008746;28;20458;-63
2022/09/01 07:36:39;;;;;;;4.82;1.90;;;19.30;99.90;;;;;;5012798;28;20050;-63
2022/09/01 07:39:05;;;;;;;3.15;1.70;;;19.50;99.90;;;;;;4978546;28;20038;-63
2022/09/01 07:41:33;;;;;;;4.18;1.70;;;19.50;99.90;;;;;;5001772;28;20359;-62
2022/09/01 07:44:01;;;;;;;4.90;2.00;;;19.60;99.90;;;;;;5012292;28;20053;-63
2022/09/01 07:46:30;;;;;;;4.90;1.90;;;19.70;99.90;;;;;;5012483;28;20056;-63
2022/09/01 07:48:56;;;;;;;4.70;2.00;;;19.60;99.90;;;;;;5014986;28;20053;-63
2022/09/01 07:51:23;;;;;;;4.60;1.90;;;19.60;99.90;;;;;;5017025;28;20045;-63
2022/09/01 07:53:49;;;;;;;3.58;1.88;;;19.70;99.90;;;;;;5012206;28;20038;-62
2022/09/01 07:56:17;;;;;;;4.95;2.05;;;19.80;99.90;;;;;;5012151;28;20099;-63
2022/09/01 07:58:44;;;;;;;5.43;2.22;;;19.90;99.90;;;;;;5013969;28;20526;-64
2022/09/01 08:01:13;;;;;;;3.13;1.83;;;19.90;99.90;;;;;;5014268;28;20042;-63
2022/09/01 08:03:40;;;;;;;3.78;2.00;;;20.00;99.90;;;;;;5011719;28;20045;-63
2022/09/01 08:06:08;;;;;;;5.82;2.00;;;20.10;99.90;;;;;;5012160;28;20049;-63
2022/09/01 08:08:36;;;;;;;3.95;1.85;;;20.20;99.90;;;;;;5012573;28;20381;-63
2022/09/01 08:11:02;;;;;;;3.33;1.52;;;20.20;99.90;;;;;;5016808;28;20030;-63
2022/09/01 08:13:28;;;;;;;2.47;1.70;;;20.00;99.90;;;;;;5012152;28;20081;-63
2022/09/01 08:15:54;;;;;;;3.20;1.60;;;20.20;99.90;;;;;;5012148;28;20041;-64
2022/09/01 08:18:19;;;;;;;3.72;1.70;;;20.40;99.90;;;;;;5011453;28;20037;-64
2022/09/01 08:20:46;;;;;;;2.70;1.60;;;20.60;99.90;;;;;;5019514;28;20082;-63
2022/09/01 08:23:13;;;;;;;4.60;1.90;;;20.70;99.90;;;;;;5011917;28;20038;-63
2022/09/01 08:25:41;;;;;;;4.00;2.03;;;20.90;99.90;;;;;;5012055;28;20477;-63
2022/09/01 08:28:07;;;;;;;2.80;1.70;;;20.90;99.90;;;;;;5011920;28;20196;-64
2022/09/01 08:30:33;;;;;;;6.10;1.98;;;20.80;99.90;;;;;;5012265;28;20046;-64
2022/09/01 08:33:00;;;;;;;4.22;1.67;;;20.90;99.90;;;;;;5011280;28;20044;-64
2022/09/01 08:35:28;;;;;;;4.15;1.83;;;20.90;99.90;;;;;;5011991;28;20049;-64
2022/09/01 08:37:55;;;;;;;2.25;1.65;;;21.00;99.90;;;;;;5011909;28;20416;-64
2022/09/01 08:40:22;;;;;;;3.95;1.67;;;21.10;99.90;;;;;;4994443;28;20110;-64
2022/09/01 08:43:25;;;;;;;4.47;1.73;;;21.20;99.90;;;;;;5013435;28;20044;-62
2022/09/01 08:45:54;;;;;;;2.90;1.75;;;21.10;99.90;;;;;;5027150;28;20054;-64
2022/09/01 08:48:32;;;;;;;2.13;1.40;;;21.20;99.90;;;;;;5026566;28;20041;-65
2022/09/01 08:51:26;;;;;;;3.53;1.30;;;21.30;99.90;;;;;;5028156;28;20038;-63
2022/09/01 08:54:03;;;;;;;3.00;1.30;;;21.40;99.80;;;;;;5011023;28;20069;-65
2022/09/01 08:56:31;;;;;;;2.38;1.50;;;21.50;99.90;;;;;;5017620;28;20029;-64
2022/09/01 08:58:57;;;;;;;3.42;1.45;;;21.60;99.90;;;;;;5024897;28;20041;-64
2022/09/01 09:01:39;;;;;;;3.80;1.38;;;21.70;99.90;;;;;;5019151;28;20050;-65
2022/09/01 09:04:07;;;;;;;3.58;1.58;;;21.90;99.50;;;;;;5018387;28;20116;-64
2022/09/01 09:06:46;;;;;;;2.45;1.10;;;21.90;99.50;;;;;;5019188;28;20042;-64
2022/09/01 09:09:12;;;;;;;1.67;1.10;;;22.00;99.40;;;;;;5023854;28;20416;-64
2022/09/01 09:11:57;;;;;;;2.03;1.30;;;22.20;99.00;;;;;;5019065;28;20042;-64
2022/09/01 09:15:00;;;;;;;2.88;1.30;;;22.30;98.40;;;;;;5005021;28;20124;-64
2022/09/01 09:17:33;;;;;;;3.70;1.25;;;22.30;98.10;;;;;;5018368;28;20112;-64
2022/09/01 09:20:00;;;;;;;2.60;1.38;;;22.40;98.10;;;;;;4997755;28;20363;-65
2022/09/01 09:22:26;;;;;;;2.45;1.25;;;22.40;97.70;;;;;;5018512;28;20042;-64
2022/09/01 09:25:02;;;;;;;1.90;1.10;;;22.40;97.50;;;;;;5021826;28;20108;-64
2022/09/01 09:27:37;;;;;;;3.95;1.15;;;22.30;97.50;;;;;;5014944;28;20096;-64
2022/09/01 09:30:12;;;;;;;4.95;1.00;;;22.40;97.40;;;;;;5026299;28;20077;-63
2022/09/01 09:33:04;;;;;;;4.40;1.20;;;22.50;97.30;;;;;;5013307;28;20125;-64
2022/09/01 09:35:37;;;;;;;3.03;1.10;;;22.50;97.30;;;;;;5014683;28;20117;-63
2022/09/01 09:38:18;;;;;;;2.58;1.20;;;22.60;97.10;;;;;;5014566;28;20073;-64
2022/09/01 09:41:07;;;;;;;1.48;0.98;;;22.60;96.60;;;;;;5014773;28;20042;-63
2022/09/01 09:43:42;;;;;;;1.42;1.08;;;22.70;96.90;;;;;;5014727;28;20046;-61
2022/09/01 09:46:22;;;;;;;3.50;1.27;;;22.70;96.80;;;;;;5014482;28;20034;-62
2022/09/01 09:49:04;;;;;;;1.83;0.95;;;22.80;96.70;;;;;;5015383;28;20547;-64
2022/09/01 09:51:30;;;;;;;1.55;1.13;;;22.90;96.80;;;;;;5026605;28;20402;-64
2022/09/01 09:54:15;;;;;;;3.60;1.25;;;22.80;96.50;;;;;;5029500;28;20681;-65
2022/09/01 09:56:43;;;;;;;3.90;1.02;;;22.90;96.50;;;;;;5027389;28;20038;-64
2022/09/01 09:59:27;;;;;;;5.32;1.33;;;23.00;96.80;;;;;;5028013;28;20124;-64
2022/09/01 10:02:13;;;;;;;2.92;1.23;;;23.00;96.10;;;;;;5027497;28;20477;-65
2022/09/01 10:04:39;;;;;;;2.10;1.10;;;23.10;96.40;;;;;;5007333;28;20481;-65
2022/09/01 10:07:31;;;;;;;3.53;1.20;;;23.20;96.20;;;;;;5028441;28;20050;-64
2022/09/01 10:10:00;;;;;;;2.50;1.30;;;23.20;95.80;;;;;;5023612;28;20465;-64
2022/09/01 10:12:28;;;;;;;4.07;1.30;;;23.20;95.50;;;;;;5031910;28;20060;-64
2022/09/01 10:14:59;;;;;;;1.95;1.13;;;23.40;95.80;;;;;;5032179;28;20057;-64
2022/09/01 10:17:41;;;;;;;3.63;1.00;;;23.30;94.90;;;;;;5033115;28;20049;-65
2022/09/01 10:20:20;;;;;;;2.97;1.20;;;23.30;95.50;;;;;;5025720;28;20042;-65
2022/09/01 10:22:47;;;;;;;2.22;1.13;;;23.40;95.60;;;;;;5013415;28;20048;-65
2022/09/01 10:25:19;;;;;;;2.20;1.10;;;23.50;95.10;;;;;;5029767;28;20059;-64
2022/09/01 10:27:50;;;;;;;2.92;1.25;;;23.50;95.10;;;;;;5033338;28;20029;-65
2022/09/01 10:30:20;;;;;;;3.45;1.10;;;23.60;94.90;;;;;;5030543;28;20052;-65
2022/09/01 10:32:53;;;;;;;2.25;1.02;;;23.60;94.70;;;;;;5030466;28;20041;-64
2022/09/01 10:35:31;;;;;;;3.88;1.20;;;23.70;94.60;;;;;;5029043;28;20092;-64
2022/09/01 10:37:58;;;;;;;1.80;1.00;;;23.80;93.80;;;;;;5025057;28;20033;-65
2022/09/01 10:40:27;;;;;;;7.30;1.17;;;23.80;94.20;;;;;;5030470;28;20030;-64
2022/09/01 10:43:17;;;;;;;3.22;1.30;;;23.80;93.90;;;;;;5023022;28;20045;-64
2022/09/01 10:45:43;;;;;;;3.53;0.98;;;23.70;93.60;;;;;;5011332;28;20489;-64
2022/09/01 10:48:22;;;;;;;2.03;0.65;;;23.60;94.20;;;;;;5028625;28;20087;-64
2022/09/01 10:50:53;;;;;;;3.63;1.00;;;23.70;93.20;;;;;;4998580;28;20139;-64
2022/09/01 10:53:34;;;;;;;1.65;0.93;;;23.30;93.20;;;;;;5019556;28;20049;-64
2022/09/01 10:56:08;;;;;;;1.98;0.90;;;23.20;93.30;;;;;;5015620;28;21495;-63
2022/09/01 10:58:47;;;;;;;1.85;1.10;;;23.10;93.70;;;;;;5014562;28;20053;-63
2022/09/01 11:01:14;;;;;;;2.47;1.10;;;23.00;94.20;;;;;;5015899;28;20054;-63
2022/09/01 11:03:51;;;;;;;1.23;1.08;;;23.00;93.60;;;;;;5013861;28;20060;-65
2022/09/01 11:06:39;;;;;;;1.42;1.00;;;23.20;93.70;;;;;;4998179;28;20041;-64
2022/09/01 11:09:06;;;;;;;2.65;0.95;;;23.40;93.60;;;;;;5017158;28;20110;-62
2022/09/01 11:11:44;;;;;;;2.85;1.02;;;23.70;93.20;;;;;;5012468;28;20079;-64
2022/09/01 11:14:21;;;;;;;1.33;0.95;;;23.80;92.60;;;;;;4996819;28;20081;-65
2022/09/01 11:17:18;;;;;;;1.70;1.08;;;24.00;93.10;;;;;;5014391;28;20041;-64
2022/09/01 11:19:59;;;;;;;1.90;1.05;;;24.00;93.00;;;;;;5019799;28;20116;-63
2022/09/01 11:22:56;;;;;;;1.98;0.88;;;24.20;93.10;;;;;;5015298;28;20117;-63
2022/09/01 11:25:39;;;;;;;1.50;1.13;;;24.30;92.40;;;;;;5015502;28;20176;-64
2022/09/01 11:28:05;;;;;;;0.85;0.80;;;24.20;92.40;;;;;;5012802;28;20052;-64
2022/09/01 11:30:30;;;;;;;2.55;1.10;;;24.20;92.40;;;;;;5025074;28;20050;-64
2022/09/01 11:33:07;;;;;;;1.10;0.63;;;24.30;92.60;;;;;;5026759;28;20041;-65
2022/09/01 11:35:32;;;;;;;2.90;1.10;;;24.40;92.10;;;;;;5008959;28;20045;-64
2022/09/01 11:38:04;;;;;;;2.58;0.68;;;24.50;92.40;;;;;;5028411;28;20051;-64
2022/09/01 11:40:32;;;;;;;2.97;0.90;;;24.70;91.90;;;;;;5005428;28;20053;-63
2022/09/01 11:43:05;;;;;;;3.33;1.00;;;24.80;91.90;;;;;;5018608;28;20042;-64
2022/09/01 11:45:35;;;;;;;1.20;0.90;;;24.80;91.80;;;;;;5030948;28;20042;-63
2022/09/01 11:48:06;;;;;;;2.38;0.77;;;24.80;91.50;;;;;;5028930;28;20127;-62
2022/09/01 11:50:35;;;;;;;2.45;1.10;;;24.80;91.40;;;;;;5022867;28;20037;-63
2022/09/01 11:53:07;;;;;;;1.30;1.10;;;24.80;91.40;;;;;;5025603;28;20096;-64
2022/09/01 11:55:42;;;;;;;1.90;0.98;;;24.90;91.00;;;;;;5031660;28;20052;-63
2022/09/01 11:58:13;;;;;;;2.17;1.10;;;25.00;90.80;;;;;;5009328;28;20386;-65
2022/09/01 12:00:41;;;;;;;2.13;0.70;;;25.10;90.00;;;;;;5002942;28;20041;-65
2022/09/01 12:03:21;;;;;;;1.13;0.90;;;25.00;88.80;;;;;;5018309;28;20038;-65
2022/09/01 12:05:53;;;;;;;1.77;0.98;;;25.10;89.00;;;;;;5016366;28;20487;-64
2022/09/01 12:08:20;;;;;;;2.00;0.90;;;25.00;90.10;;;;;;4999922;28;20049;-65
2022/09/01 12:10:47;;;;;;;2.13;0.75;;;25.00;90.20;;;;;;5020001;28;20041;-65
2022/09/01 12:13:21;;;;;;;1.27;0.90;;;24.80;90.00;;;;;;5018714;28;20524;-64
2022/09/01 12:15:58;;;;;;;1.15;0.73;;;24.70;90.10;;;;;;5020651;28;20133;-65
2022/09/01 12:18:28;;;;;;;1.77;0.80;;;24.70;89.20;;;;;;5018356;28;20104;-64
2022/09/01 12:20:58;;;;;;;1.48;0.70;;;24.70;89.00;;;;;;4996846;28;20458;-64
2022/09/01 12:23:24;;;;;;;1.70;1.00;;;24.50;89.30;;;;;;5023102;28;20034;-65
2022/09/01 12:25:54;;;;;;;1.30;0.90;;;24.50;90.20;;;;;;5017217;28;20053;-65
2022/09/01 12:28:22;;;;;;;2.28;0.80;;;24.60;90.00;;;;;;4979265;28;20038;-63
2022/09/01 12:30:48;;;;;;;1.30;0.93;;;24.80;90.00;;;;;;5026403;28;20154;-63
2022/09/01 12:33:17;;;;;;;2.55;1.00;;;24.70;89.40;;;;;;4987590;28;20065;-64
2022/09/01 12:35:44;;;;;;;1.88;0.88;;;24.60;89.90;;;;;;5013304;28;20529;-63
2022/09/01 12:38:18;;;;;;;1.33;0.88;;;24.80;90.00;;;;;;5015641;28;20048;-64
2022/09/01 12:40:55;;;;;;;2.45;0.90;;;25.00;89.60;;;;;;5016001;28;20053;-63
2022/09/01 12:43:35;;;;;;;1.08;0.80;;;24.80;89.30;;;;;;4988222;28;20050;-63
2022/09/01 12:46:03;;;;;;;3.63;1.27;;;24.50;89.40;;;;;;5014291;28;20034;-63
2022/09/01 12:48:37;;;;;;;2.42;0.80;;;24.30;90.10;;;;;;5015490;28;20366;-63
2022/09/01 12:51:24;;;;;;;0.85;0.75;;;24.40;89.80;;;;;;5020384;28;20038;-63
2022/09/01 12:53:59;;;;;;;1.38;0.98;;;24.30;89.90;;;;;;5015437;28;20057;-64
2022/09/01 12:56:32;;;;;;;1.15;0.90;;;24.20;90.00;;;;;;5015529;28;20041;-64
2022/09/01 12:59:13;;;;;;;0.88;0.88;;;24.50;90.00;;;;;;5017120;28;20046;-64
2022/09/01 13:01:41;;;;;;;1.77;1.00;;;24.70;90.00;;;;;;5015000;28;20053;-64
2022/09/01 13:04:07;;;;;;;3.15;0.90;;;25.00;88.70;;;;;;5014744;28;20053;-64
2022/09/01 13:06:32;;;;;;;1.30;1.00;;;25.10;88.90;;;;;;4992310;28;20053;-64
2022/09/01 13:08:58;;;;;;;0.77;0.77;;;25.00;88.70;;;;;;5008366;28;20052;-64
2022/09/01 13:11:23;;;;;;;2.17;1.10;;;24.90;88.50;;;;;;5017000;28;20651;-64
2022/09/01 13:13:49;;;;;;;3.13;0.90;;;24.40;90.00;;;;;;5014852;28;20048;-63
2022/09/01 13:16:15;;;;;;;2.25;0.93;;;24.40;90.00;;;;;;5015140;28;20037;-63
2022/09/01 13:18:42;;;;;;;2.10;1.13;;;24.00;90.10;;;;;;5015396;28;20092;-64
2022/09/01 13:21:08;;;;;;;1.70;0.90;;;24.10;90.20;;;;;;5017229;28;20053;-63
2022/09/01 13:23:34;;;;;;;1.38;0.75;;;24.10;90.40;;;;;;4983526;28;20402;-63
2022/09/01 13:26:00;;;;;;;0.88;0.77;;;24.30;90.00;;;;;;5014225;28;20049;-63
2022/09/01 13:28:26;;;;;;;3.60;1.20;;;24.30;89.80;;;;;;5014797;28;20634;-63
2022/09/01 13:31:00;;;;;;;2.55;1.17;;;24.40;89.90;;;;;;5027704;28;20477;-64
2022/09/01 13:33:26;;;;;;;1.60;0.85;;;24.50;90.00;;;;;;5029652;28;20046;-62
2022/09/01 13:35:53;;;;;;;1.52;0.80;;;24.40;90.20;;;;;;5010943;28;20053;-63
2022/09/01 13:38:20;;;;;;;3.03;1.00;;;24.30;90.30;;;;;;5028581;28;20418;-63
2022/09/01 13:40:47;;;;;;;2.15;0.75;;;24.20;90.10;;;;;;5029455;28;20045;-63
2022/09/01 13:43:20;;;;;;;3.28;1.23;;;24.20;90.40;;;;;;5008825;28;20045;-64
2022/09/01 13:45:46;;;;;;;0.93;0.82;;;24.30;90.30;;;;;;5008587;28;20056;-63
2022/09/01 13:48:13;;;;;;;1.60;0.88;;;24.40;89.70;;;;;;5025480;28;20035;-63
2022/09/01 13:50:40;;;;;;;1.48;0.98;;;24.50;88.40;;;;;;5023217;28;20029;-63
2022/09/01 13:53:05;;;;;;;2.97;1.00;;;24.40;87.50;;;;;;5023203;28;20467;-63
2022/09/01 13:55:34;;;;;;;2.05;0.80;;;24.20;88.60;;;;;;5028534;28;20060;-61
2022/09/01 13:58:00;;;;;;;3.42;0.80;;;24.00;88.80;;;;;;5023187;28;20046;-62
2022/09/01 14:00:32;;;;;;;1.35;0.95;;;24.00;88.70;;;;;;5021202;28;20049;-62
2022/09/01 14:03:02;;;;;;;1.65;0.88;;;24.00;89.00;;;;;;5022429;28;20038;-62
2022/09/01 14:05:33;;;;;;;2.30;0.90;;;24.10;89.60;;;;;;5026435;28;20508;-63
2022/09/01 14:08:00;;;;;;;1.67;0.90;;;24.30;89.30;;;;;;5023615;28;20042;-63
2022/09/01 14:10:28;;;;;;;1.20;1.02;;;24.50;88.70;;;;;;5024766;28;20497;-63
2022/09/01 14:12:54;;;;;;;2.60;0.90;;;24.60;88.70;;;;;;5026442;28;20049;-64
2022/09/01 14:15:20;;;;;;;2.38;0.85;;;24.80;88.60;;;;;;5024364;28;20030;-62
2022/09/01 14:17:49;;;;;;;2.50;1.10;;;24.90;88.30;;;;;;5028085;28;20048;-63
2022/09/01 14:20:20;;;;;;;3.17;1.20;;;24.90;87.60;;;;;;5020716;28;20030;-63
2022/09/01 14:22:47;;;;;;;2.42;0.95;;;24.90;87.70;;;;;;5027897;28;20389;-62
2022/09/01 14:25:14;;;;;;;3.60;1.05;;;24.80;87.70;;;;;;5005246;28;20042;-62
2022/09/01 14:27:41;;;;;;;1.80;0.90;;;24.80;87.80;;;;;;5014121;28;20049;-62
2022/09/01 14:30:10;;;;;;;1.40;1.10;;;24.90;87.50;;;;;;5024066;28;20112;-62
2022/09/01 14:32:35;;;;;;;1.88;0.85;;;24.90;87.20;;;;;;5012643;28;20066;-62
2022/09/01 14:35:02;;;;;;;3.00;0.70;;;24.90;87.20;;;;;;5012827;28;20089;-63
2022/09/01 14:37:28;;;;;;;2.80;0.80;;;24.90;87.20;;;;;;5013580;28;20096;-64
2022/09/01 14:39:56;;;;;;;1.70;0.90;;;24.90;86.80;;;;;;5021561;28;20041;-63
2022/09/01 14:42:24;;;;;;;0.93;0.82;;;25.00;86.20;;;;;;5016860;28;20455;-62
2022/09/01 14:44:51;;;;;;;1.38;0.82;;;25.10;86.00;;;;;;5012283;28;20034;-63
2022/09/01 14:47:17;;;;;;;1.92;1.10;;;25.20;86.40;;;;;;5013406;28;20112;-63
2022/09/01 14:49:43;;;;;;;4.30;1.02;;;25.20;86.60;;;;;;5019933;28;20129;-63
2022/09/01 14:52:10;;;;;;;4.45;1.02;;;25.20;86.00;;;;;;4984402;28;20049;-64
2022/09/01 14:54:41;;;;;;;3.20;0.98;;;25.20;86.20;;;;;;5012365;28;20034;-62
2022/09/01 14:57:07;;;;;;;3.53;1.00;;;25.20;86.40;;;;;;5013497;28;20049;-62
2022/09/01 14:59:34;;;;;;;3.33;1.00;;;25.20;86.80;;;;;;5014505;28;20038;-62
2022/09/01 15:02:00;;;;;;;1.63;0.82;;;25.20;86.60;;;;;;4985772;28;20061;-63
2022/09/01 15:04:26;;;;;;;1.08;0.80;;;25.20;86.30;;;;;;5008966;28;20598;-63
2022/09/01 15:06:52;;;;;;;2.65;1.00;;;25.00;86.20;;;;;;5012480;28;20103;-63
2022/09/01 15:09:18;;;;;;;2.40;1.00;;;25.00;86.40;;;;;;5016094;28;20036;-63
2022/09/01 15:11:44;;;;;;;4.47;1.00;;;24.90;86.20;;;;;;5012903;28;20362;-62
2022/09/01 15:14:10;;;;;;;0.90;0.70;;;24.90;86.40;;;;;;5012918;28;20041;-62
2022/09/01 15:16:40;;;;;;;1.70;0.80;;;24.80;85.80;;;;;;5026779;28;20041;-63
2022/09/01 15:19:12;;;;;;;2.40;0.90;;;24.80;85.70;;;;;;5014262;28;20041;-62
2022/09/01 15:21:39;;;;;;;1.15;1.00;;;24.70;85.50;;;;;;5014319;28;20084;-62
2022/09/01 15:24:07;;;;;;;2.30;1.00;;;24.60;85.50;;;;;;5029430;28;20080;-62
2022/09/01 15:26:33;;;;;;;2.75;0.80;;;24.60;85.90;;;;;;5017674;28;20104;-64
2022/09/01 15:29:00;;;;;;;1.23;0.85;;;24.70;85.40;;;;;;4979625;28;20450;-64
2022/09/01 15:31:30;;;;;;;2.53;0.93;;;24.80;85.90;;;;;;5012469;28;20458;-65
2022/09/01 15:33:56;;;;;;;2.40;0.90;;;24.70;86.10;;;;;;5012758;28;20038;-64
2022/09/01 15:36:24;;;;;;;2.15;1.20;;;24.70;85.10;;;;;;5012264;28;20049;-64
2022/09/01 15:38:50;;;;;;;2.08;0.90;;;24.70;86.10;;;;;;5011124;28;20116;-63
2022/09/01 15:41:26;;;;;;;1.88;1.02;;;24.60;86.80;;;;;;5029103;28;20029;-62
2022/09/01 15:43:52;;;;;;;7.60;4.07;;;24.80;85.10;;;;;;5028647;28;20373;-63
2022/09/01 15:46:19;;;;;;;2.22;1.30;;;24.80;86.20;;;;;;5023714;28;20050;-63
2022/09/01 15:48:45;;;;;;;1.15;0.88;;;24.80;85.50;;;;;;5020268;28;20179;-64
2022/09/01 15:51:22;;;;;;;2.50;0.98;;;24.80;85.70;;;;;;5000235;28;20128;-63
2022/09/01 15:53:53;;;;;;;1.38;0.85;;;24.70;87.80;;;;;;5029678;28;20053;-62
2022/09/01 15:56:19;;;;;;;0.77;0.70;;;24.70;86.10;;;;;;5016510;28;20447;-62
2022/09/01 15:58:49;;;;;;;1.05;0.63;;;24.60;86.00;;;;;;4999993;28;20045;-62
2022/09/01 16:01:15;;;;;;;1.73;0.85;;;24.60;86.70;;;;;;5017220;28;20053;-62
2022/09/01 16:03:41;;;;;;;2.67;0.95;;;24.50;86.50;;;;;;5016519;28;20038;-63
2022/09/01 16:06:07;;;;;;;3.03;2.00;;;24.50;87.20;;;;;;5016791;28;20081;-63
2022/09/01 16:08:34;;;;;;;5.70;1.45;;;24.60;87.80;;;;;;5016285;28;20038;-63
2022/09/01 16:11:01;;;;;;;5.05;1.38;;;24.50;86.90;;;;;;5019358;28;20037;-64
2022/09/01 16:13:27;;;;;;;4.07;0.90;;;24.50;86.90;;;;;;5024878;28;20532;-64
2022/09/01 16:16:09;;;;;;;1.92;1.02;;;24.60;86.20;;;;;;5011292;28;20061;-64
2022/09/01 16:18:57;;;;;;;2.05;0.90;;;24.60;86.10;;;;;;5016209;28;20343;-62
2022/09/01 16:21:52;;;;;;;5.13;1.15;;;24.60;86.20;;;;;;5019406;28;20575;-63
2022/09/01 16:24:18;;;;;;;1.10;0.90;;;24.50;87.20;;;;;;5026236;28;20081;-63
2022/09/01 16:26:47;;;;;;;2.47;0.80;;;24.40;87.10;;;;;;5014522;28;20045;-63
2022/09/01 16:29:33;;;;;;;1.08;0.80;;;24.30;87.10;;;;;;4999818;28;20061;-63
2022/09/01 16:31:59;;;;;;;1.88;0.77;;;24.30;87.00;;;;;;5028852;28;20065;-63
2022/09/01 16:34:24;;;;;;;4.30;1.20;;;24.40;86.40;;;;;;5024103;28;20077;-64
2022/09/01 16:37:04;;;;;;;2.65;0.90;;;24.30;86.40;;;;;;5027200;28;20037;-63
2022/09/01 16:39:47;;;;;;;1.60;1.00;;;24.30;85.90;;;;;;5025425;28;20033;-64
2022/09/01 16:42:45;;;;;;;4.03;1.00;;;24.30;86.00;;;;;;5027468;28;20040;-63
2022/09/01 16:45:21;;;;;;;1.45;0.90;;;24.20;87.10;;;;;;5015033;28;20446;-63
2022/09/01 16:48:46;;;;;;;1.48;0.88;;;24.30;85.60;;;;;;5006442;28;20050;-63
2022/09/01 16:51:30;;;;;;;2.65;1.00;;;24.20;86.60;;;;;;4948737;28;20459;-64
2022/09/01 16:54:32;;;;;;;2.58;1.17;;;24.10;86.30;;;;;;4966295;28;20546;-64
2022/09/01 16:57:13;;;;;;;1.70;0.90;;;24.10;86.10;;;;;;5007672;28;20100;-64
2022/09/01 16:59:53;;;;;;;3.08;1.20;;;24.10;86.50;;;;;;5020214;28;20072;-62
2022/09/01 17:02:31;;;;;;;2.20;0.80;;;23.90;85.30;;;;;;5012702;28;20054;-64